createdAt,value
2018-02-13T00:00:47.079Z,75.80
2018-02-13T00:03:14.583Z,75.90
2018-02-13T00:05:43.291Z,75.70
2018-02-13T00:08:10.856Z,75.70
2018-02-13T00:10:38.381Z,75.90
2018-02-13T00:13:05.919Z,76.20
2018-02-13T00:15:34.196Z,76.00
2018-02-13T00:18:02.455Z,76.00
2018-02-13T00:20:29.971Z,76.00
2018-02-13T00:23:01.408Z,75.80
2018-02-13T00:25:28.945Z,75.90
2018-02-13T00:27:56.465Z,75.90
2018-02-13T00:30:23.969Z,76.10
2018-02-13T00:32:51.481Z,76.00
2018-02-13T00:35:19.007Z,76.20
2018-02-13T00:37:47.284Z,76.10
2018-02-13T00:40:14.792Z,76.00
2018-02-13T00:42:42.304Z,76.10
2018-02-13T00:45:10.650Z,76.20
2018-02-13T00:47:38.931Z,76.40
2018-02-13T00:50:06.450Z,76.30
2018-02-13T00:52:33.968Z,76.40
2018-02-13T00:55:01.487Z,76.40
2018-02-13T00:57:29.777Z,76.40
2018-02-13T00:59:58.064Z,76.30
2018-02-13T01:02:25.562Z,76.20
2018-02-13T01:04:53.076Z,76.40
2018-02-13T01:07:20.611Z,76.50
2018-02-13T01:09:48.124Z,76.60
2018-02-13T01:12:15.662Z,76.80
2018-02-13T01:14:43.183Z,76.70
2018-02-13T01:17:10.682Z,76.70
2018-02-13T01:19:38.205Z,76.80
2018-02-13T01:22:05.709Z,76.90
2018-02-13T01:24:33.221Z,77.00
2018-02-13T01:27:01.513Z,76.70
2018-02-13T01:29:29.801Z,76.80
2018-02-13T01:31:57.324Z,76.80
2018-02-13T01:34:24.840Z,76.60
2018-02-13T01:36:52.344Z,76.60
2018-02-13T01:39:20.619Z,76.40
2018-02-13T01:41:48.138Z,76.20
2018-02-13T01:44:15.660Z,76.10
2018-02-13T01:46:43.158Z,76.30
2018-02-13T01:49:10.682Z,76.50
2018-02-13T01:51:38.538Z,77.50
2018-02-13T01:54:06.856Z,76.40
2018-02-13T01:56:34.373Z,76.30
2018-02-13T01:59:01.884Z,76.30
2018-02-13T02:01:29.383Z,76.50
2018-02-13T02:03:57.671Z,76.40
2018-02-13T02:06:25.947Z,76.40
2018-02-13T02:08:54.208Z,76.40
2018-02-13T02:11:22.500Z,76.00
2018-02-13T02:13:50.055Z,75.90
2018-02-13T02:16:17.540Z,75.70
2018-02-13T02:18:45.058Z,75.70
2018-02-13T02:21:12.576Z,75.80
2018-02-13T02:23:40.075Z,75.20
2018-02-13T02:26:07.591Z,74.60
2018-02-13T02:28:35.082Z,74.40
2018-02-13T02:31:02.599Z,75.00
2018-02-13T02:33:30.126Z,74.50
2018-02-13T02:35:57.644Z,74.40
2018-02-13T02:38:25.143Z,74.50
2018-02-13T02:40:53.430Z,74.40
2018-02-13T02:43:21.715Z,74.50
2018-02-13T02:45:49.237Z,74.50
2018-02-13T02:48:16.746Z,74.50
2018-02-13T02:50:44.257Z,74.90
2018-02-13T02:53:12.540Z,75.60
2018-02-13T02:55:40.832Z,74.40
2018-02-13T02:58:09.117Z,74.90
2018-02-13T03:00:37.383Z,74.70
2018-02-13T03:03:04.904Z,74.70
2018-02-13T03:05:32.406Z,75.00
2018-02-13T03:07:59.908Z,75.00
2018-02-13T03:10:27.442Z,74.80
2018-02-13T03:12:54.940Z,74.80
2018-02-13T03:15:22.453Z,75.00
2018-02-13T03:17:49.975Z,75.20
2018-02-13T03:20:17.485Z,75.30
2018-02-13T03:22:44.998Z,75.40
2018-02-13T03:25:12.564Z,75.20
2018-02-13T03:27:40.848Z,75.40
2018-02-13T03:30:08.377Z,75.30
2018-02-13T03:32:35.912Z,75.80
2018-02-13T03:35:03.420Z,75.70
2018-02-13T03:37:31.686Z,75.60
2018-02-13T03:39:59.974Z,75.40
2018-02-13T03:42:27.476Z,75.40
2018-02-13T03:44:54.990Z,75.30
2018-02-13T03:47:22.506Z,75.40
2018-02-13T03:49:50.006Z,75.60
2018-02-13T03:52:18.282Z,75.20
2018-02-13T03:54:45.812Z,75.20
2018-02-13T03:57:13.334Z,75.30
2018-02-13T03:59:40.832Z,75.10
2018-02-13T04:02:08.348Z,75.10
2018-02-13T04:04:35.850Z,75.10
2018-02-13T04:07:03.356Z,74.90
2018-02-13T04:09:30.868Z,75.10
2018-02-13T04:11:58.382Z,76.00
2018-02-13T04:14:25.877Z,75.70
2018-02-13T04:16:53.382Z,75.30
2018-02-13T04:19:20.920Z,75.80
2018-02-13T04:21:49.212Z,75.10
2018-02-13T04:24:16.747Z,75.00
2018-02-13T04:26:44.253Z,75.10
2018-02-13T04:29:11.787Z,75.00
2018-02-13T04:31:40.176Z,74.90
2018-02-13T04:34:07.708Z,74.90
2018-02-13T04:36:35.974Z,74.50
2018-02-13T04:39:03.490Z,74.80
2018-02-13T04:41:30.994Z,74.50
2018-02-13T04:43:58.499Z,74.40
2018-02-13T04:46:26.040Z,74.40
2018-02-13T04:48:53.584Z,74.50
2018-02-13T04:51:21.086Z,74.80
2018-02-13T04:53:48.606Z,74.60
2018-02-13T04:56:16.879Z,74.90
2018-02-13T04:58:45.151Z,75.00
2018-02-13T05:01:13.570Z,75.00
2018-02-13T05:03:41.076Z,75.00
2018-02-13T05:06:09.360Z,75.00
2018-02-13T05:08:37.644Z,74.70
2018-02-13T05:11:05.173Z,74.60
2018-02-13T05:13:32.685Z,74.00
2018-02-13T05:16:00.203Z,73.90
2018-02-13T05:18:27.730Z,74.20
2018-02-13T05:20:55.235Z,74.30
2018-02-13T05:23:22.760Z,74.20
2018-02-13T05:25:50.304Z,74.20
2018-02-13T05:28:17.840Z,74.30
2018-02-13T05:30:45.400Z,74.50
2018-02-13T05:33:13.724Z,74.50
2018-02-13T05:35:41.268Z,74.50
2018-02-13T05:38:09.455Z,74.50
2018-02-13T05:40:38.156Z,74.20
2018-02-13T05:43:05.705Z,74.10
2018-02-13T05:45:33.252Z,73.90
2018-02-13T05:48:00.803Z,73.90
2018-02-13T05:50:28.346Z,73.60
2018-02-13T05:52:55.912Z,74.30
2018-02-13T05:55:23.471Z,73.80
2018-02-13T05:57:51.014Z,73.40
2018-02-13T06:00:18.582Z,73.20
2018-02-13T06:02:46.124Z,73.50
2018-02-13T06:05:13.689Z,73.60
2018-02-13T06:07:41.234Z,73.50
2018-02-13T06:10:08.809Z,73.40
2018-02-13T06:12:36.372Z,73.30
2018-02-13T06:15:04.688Z,73.60
2018-02-13T06:17:32.231Z,73.60
2018-02-13T06:20:00.532Z,73.50
2018-02-13T06:22:28.125Z,73.30
2018-02-13T06:24:55.653Z,73.80
2018-02-13T06:27:23.192Z,73.90
2018-02-13T06:29:50.778Z,73.70
2018-02-13T06:32:18.336Z,73.80
2018-02-13T06:34:46.657Z,74.40
2018-02-13T06:37:14.198Z,74.40
2018-02-13T06:39:41.743Z,74.60
2018-02-13T06:42:10.042Z,74.40
2018-02-13T06:44:37.593Z,74.30
2018-02-13T06:47:05.141Z,74.10
2018-02-13T06:49:32.697Z,74.50
2018-02-13T06:52:00.260Z,74.10
2018-02-13T06:54:28.583Z,74.30
2018-02-13T06:56:56.122Z,74.20
2018-02-13T06:59:23.692Z,74.10
2018-02-13T07:01:52.072Z,74.10
2018-02-13T07:04:19.615Z,74.30
2018-02-13T07:06:47.148Z,73.80
2018-02-13T07:09:14.708Z,73.50
2018-02-13T07:11:42.236Z,72.90
2018-02-13T07:14:09.780Z,72.90
2018-02-13T07:16:37.331Z,72.60
2018-02-13T07:19:04.876Z,73.00
2018-02-13T07:21:32.446Z,72.30
2018-02-13T07:23:59.982Z,72.20
2018-02-13T07:26:27.512Z,72.40
2018-02-13T07:28:55.075Z,71.30
2018-02-13T07:31:22.620Z,71.40
2018-02-13T07:33:50.144Z,71.60
2018-02-13T07:36:17.721Z,71.10
2018-02-13T07:38:45.354Z,71.00
2018-02-13T07:41:12.900Z,70.50
2018-02-13T07:43:40.468Z,70.30
2018-02-13T07:46:08.020Z,70.40
2018-02-13T07:48:36.356Z,70.50
2018-02-13T07:51:03.932Z,70.50
2018-02-13T07:53:31.476Z,70.10
2018-02-13T07:55:58.995Z,69.30
2018-02-13T07:58:26.552Z,69.00
2018-02-13T08:00:54.115Z,69.90
2018-02-13T08:03:21.674Z,69.40
2018-02-13T08:05:49.229Z,69.00
2018-02-13T08:08:16.765Z,68.30
2018-02-13T08:10:44.344Z,68.30
2018-02-13T08:13:11.899Z,68.00
2018-02-13T08:15:39.452Z,68.40
2018-02-13T08:18:07.001Z,68.40
2018-02-13T08:20:35.332Z,67.10
2018-02-13T08:23:02.892Z,67.10
2018-02-13T08:25:30.432Z,66.90
2018-02-13T08:27:57.984Z,67.30
2018-02-13T08:30:25.532Z,67.20
2018-02-13T08:32:53.076Z,67.50
2018-02-13T08:35:20.628Z,67.70
2018-02-13T08:37:48.938Z,68.60
2018-02-13T08:40:16.465Z,68.60
2018-02-13T08:42:44.177Z,68.00
2018-02-13T08:45:11.710Z,68.50
2018-02-13T08:47:39.240Z,67.50
2018-02-13T08:50:06.787Z,67.30
2018-02-13T08:52:34.330Z,67.30
2018-02-13T08:55:01.900Z,67.50
2018-02-13T08:57:29.451Z,66.60
2018-02-13T08:59:56.995Z,66.60
2018-02-13T09:02:24.541Z,67.90
2018-02-13T09:04:52.106Z,67.60
2018-02-13T09:07:19.659Z,67.70
2018-02-13T09:09:47.181Z,66.40
2018-02-13T09:12:15.477Z,66.40
2018-02-13T09:14:43.015Z,66.40
2018-02-13T09:17:10.525Z,66.60
2018-02-13T09:19:38.056Z,67.00
2018-02-13T09:22:05.584Z,67.00
2018-02-13T09:24:33.100Z,66.80
2018-02-13T09:27:00.639Z,67.60
2018-02-13T09:29:28.150Z,66.80
2018-02-13T09:31:55.663Z,67.30
2018-02-13T09:34:23.179Z,67.40
2018-02-13T09:36:50.685Z,67.50
2018-02-13T09:39:18.205Z,67.90
2018-02-13T09:41:46.513Z,67.90
2018-02-13T09:44:14.046Z,67.90
2018-02-13T09:46:41.566Z,67.10
2018-02-13T09:49:09.102Z,67.60
2018-02-13T09:51:36.599Z,68.00
2018-02-13T09:54:04.104Z,68.40
2018-02-13T09:56:31.644Z,66.60
2018-02-13T09:58:59.188Z,67.00
2018-02-13T10:01:27.487Z,65.90
2018-02-13T10:03:55.007Z,66.00
2018-02-13T10:06:23.337Z,68.70
2018-02-13T10:08:50.850Z,68.70
2018-02-13T10:11:18.379Z,68.90
2018-02-13T10:13:45.899Z,69.20
2018-02-13T10:16:13.428Z,69.00
2018-02-13T10:18:40.956Z,69.80
2018-02-13T10:21:08.469Z,68.70
2018-02-13T10:23:36.744Z,69.60
2018-02-13T10:26:05.012Z,70.00
2018-02-13T10:28:33.294Z,69.60
2018-02-13T10:31:01.578Z,70.60
2018-02-13T10:33:29.128Z,70.40
2018-02-13T10:35:56.643Z,70.20
2018-02-13T10:38:24.156Z,70.00
2018-02-13T10:40:51.689Z,69.00
2018-02-13T10:43:19.206Z,69.90
2018-02-13T10:45:46.721Z,70.70
2018-02-13T10:48:15.012Z,70.70
2018-02-13T10:50:42.540Z,70.60
2018-02-13T10:53:10.109Z,70.40
2018-02-13T10:55:37.642Z,70.50
2018-02-13T10:58:05.166Z,70.80
2018-02-13T11:00:38.428Z,70.90
2018-02-13T11:03:06.708Z,71.10
2018-02-13T11:05:34.215Z,71.00
2018-02-13T11:08:01.741Z,70.10
2018-02-13T11:10:29.273Z,70.50
2018-02-13T11:12:57.559Z,70.90
2018-02-13T11:15:25.846Z,71.90
2018-02-13T11:17:53.367Z,71.90
2018-02-13T11:20:20.866Z,71.90
2018-02-13T11:22:48.392Z,71.90
2018-02-13T11:25:15.905Z,71.60
2018-02-13T11:27:43.416Z,71.20
2018-02-13T11:30:10.936Z,72.40
2018-02-13T11:32:38.445Z,72.00
2018-02-13T11:35:06.727Z,71.10
2018-02-13T11:37:35.018Z,71.20
2018-02-13T11:40:02.540Z,71.10
2018-02-13T11:42:30.072Z,70.80
2018-02-13T11:44:57.601Z,70.60
2018-02-13T11:47:25.110Z,70.70
2018-02-13T11:49:52.626Z,69.60
2018-02-13T11:52:20.137Z,70.00
2018-02-13T11:54:48.427Z,71.10
2018-02-13T11:57:16.705Z,73.10
2018-02-13T11:59:45.038Z,73.40
2018-02-13T12:02:12.547Z,73.40
2018-02-13T12:04:40.082Z,74.40
2018-02-13T12:07:07.654Z,72.50
2018-02-13T12:09:35.124Z,71.30
2018-02-13T12:12:02.631Z,70.20
2018-02-13T12:14:30.170Z,69.30
2018-02-13T12:16:57.683Z,70.40
2018-02-13T12:19:25.185Z,71.50
2018-02-13T12:21:52.706Z,72.20
2018-02-13T12:24:20.988Z,74.40
2018-02-13T12:26:48.531Z,74.40
2018-02-13T12:29:16.051Z,75.50
2018-02-13T12:31:43.572Z,76.70
2018-02-13T12:34:11.076Z,77.20
2018-02-13T12:36:38.592Z,77.70
2018-02-13T12:39:06.160Z,78.30
2018-02-13T12:41:33.636Z,78.00
2018-02-13T12:44:01.175Z,77.50
2018-02-13T12:46:28.705Z,77.50
2018-02-13T12:48:57.056Z,77.30
2018-02-13T12:51:24.537Z,77.20
2018-02-13T12:53:52.067Z,77.00
2018-02-13T12:56:19.610Z,75.90
2018-02-13T12:58:47.119Z,75.20
2018-02-13T13:01:14.661Z,74.70
2018-02-13T13:03:42.191Z,75.70
2018-02-13T13:06:09.727Z,74.60
2018-02-13T13:08:37.265Z,73.60
2018-02-13T13:11:05.541Z,73.40
2018-02-13T13:13:33.076Z,73.40
2018-02-13T13:16:00.611Z,73.20
2018-02-13T13:18:28.121Z,73.70
2018-02-13T13:20:56.401Z,74.10
2018-02-13T13:23:23.914Z,74.10
2018-02-13T13:25:51.423Z,74.90
2018-02-13T13:28:18.966Z,76.10
2018-02-13T13:30:47.243Z,77.50
2018-02-13T13:33:15.542Z,78.30
2018-02-13T13:35:43.055Z,78.20
2018-02-13T13:38:10.565Z,78.20
2018-02-13T13:40:38.106Z,77.40
2018-02-13T13:43:05.631Z,77.20
2018-02-13T13:45:33.135Z,76.70
2018-02-13T13:48:00.656Z,77.20
2018-02-13T13:50:28.171Z,77.40
2018-02-13T13:52:56.436Z,76.00
2018-02-13T13:55:23.945Z,75.90
2018-02-13T13:57:51.479Z,76.60
2018-02-13T14:00:18.999Z,77.60
2018-02-13T14:02:46.499Z,78.30
2018-02-13T14:05:14.031Z,79.10
2018-02-13T14:07:41.546Z,79.10
2018-02-13T14:10:09.070Z,79.70
2018-02-13T14:12:36.607Z,80.80
2018-02-13T14:15:04.116Z,81.30
2018-02-13T14:17:35.255Z,82.50
2018-02-13T14:20:02.803Z,83.20
2018-02-13T14:22:30.319Z,84.00
2018-02-13T14:24:57.842Z,84.30
2018-02-13T14:27:25.358Z,84.40
2018-02-13T14:29:52.864Z,84.60
2018-02-13T14:32:21.127Z,85.60
2018-02-13T14:34:48.662Z,85.00
2018-02-13T14:37:16.179Z,85.40
2018-02-13T14:39:43.681Z,84.10
2018-02-13T14:42:11.195Z,84.00
2018-02-13T14:44:38.692Z,83.90
2018-02-13T14:47:06.220Z,83.70
2018-02-13T14:49:33.731Z,83.20
2018-02-13T14:52:01.241Z,83.10
2018-02-13T14:54:28.754Z,82.70
2018-02-13T14:56:56.265Z,83.50
2018-02-13T14:59:23.763Z,83.60
2018-02-13T15:01:52.155Z,83.20
2018-02-13T15:04:19.685Z,83.10
2018-02-13T15:06:47.197Z,83.70
2018-02-13T15:09:15.459Z,83.70
2018-02-13T15:11:43.771Z,84.10
2018-02-13T15:14:11.279Z,84.10
2018-02-13T15:16:38.814Z,84.00
2018-02-13T15:19:06.357Z,84.50
2018-02-13T15:21:33.868Z,84.80
2018-02-13T15:24:01.391Z,84.90
2018-02-13T15:26:28.936Z,85.10
2018-02-13T15:28:56.461Z,85.50
2018-02-13T15:31:23.987Z,85.80
2018-02-13T15:33:51.523Z,85.50
2018-02-13T15:36:19.027Z,85.90
2018-02-13T15:38:46.566Z,85.80
2018-02-13T15:41:14.077Z,85.70
2018-02-13T15:43:41.579Z,85.80
2018-02-13T15:46:09.090Z,86.20
2018-02-13T15:48:36.622Z,86.10
2018-02-13T15:51:04.899Z,86.60
2018-02-13T15:53:32.424Z,86.60
2018-02-13T15:55:59.943Z,86.50
2018-02-13T15:58:27.445Z,86.70
2018-02-13T16:00:54.965Z,87.20
2018-02-13T16:03:22.511Z,87.40
2018-02-13T16:05:50.025Z,87.50
2018-02-13T16:08:18.340Z,87.80
2018-02-13T16:10:45.886Z,87.70
2018-02-13T16:13:13.405Z,87.90
2018-02-13T16:15:40.923Z,88.10
2018-02-13T16:18:08.463Z,88.10
2018-02-13T16:20:36.016Z,88.10
2018-02-13T16:23:03.503Z,88.30
2018-02-13T16:25:31.043Z,88.30
2018-02-13T16:27:58.567Z,88.50
2018-02-13T16:30:26.089Z,88.60
2018-02-13T16:32:53.617Z,88.70
2018-02-13T16:35:21.905Z,88.80
2018-02-13T16:37:49.466Z,88.70
2018-02-13T16:40:16.975Z,88.70
2018-02-13T16:42:44.483Z,88.80
2018-02-13T16:45:12.022Z,88.90
2018-02-13T16:47:40.333Z,88.70
2018-02-13T16:50:07.859Z,88.60
2018-02-13T16:52:35.383Z,88.70
2018-02-13T16:55:02.895Z,88.60
2018-02-13T16:57:30.411Z,88.40
2018-02-13T16:59:57.945Z,88.40
2018-02-13T17:02:25.464Z,88.30
2018-02-13T17:04:53.743Z,87.90
2018-02-13T17:07:21.263Z,87.80
2018-02-13T17:09:48.787Z,87.60
2018-02-13T17:12:16.290Z,87.70
2018-02-13T17:14:43.800Z,87.80
2018-02-13T17:17:12.089Z,87.10
2018-02-13T17:19:39.676Z,87.10
2018-02-13T17:22:07.160Z,87.20
2018-02-13T17:24:35.489Z,87.30
2018-02-13T17:27:03.033Z,87.20
2018-02-13T17:29:30.525Z,87.30
2018-02-13T17:31:58.043Z,87.40
2018-02-13T17:34:25.560Z,87.20
2018-02-13T17:36:53.092Z,87.40
2018-02-13T17:39:20.663Z,87.40
2018-02-13T17:41:48.175Z,87.60
2018-02-13T17:44:15.685Z,87.50
2018-02-13T17:46:43.245Z,87.70
2018-02-13T17:49:10.759Z,87.70
2018-02-13T17:51:38.289Z,87.90
2018-02-13T17:54:06.591Z,88.00
2018-02-13T17:56:34.093Z,87.80
2018-02-13T17:59:01.614Z,88.00
2018-02-13T18:01:29.146Z,87.90
2018-02-13T18:03:57.449Z,87.70
2018-02-13T18:06:24.955Z,87.60
2018-02-13T18:08:52.485Z,87.70
2018-02-13T18:11:20.007Z,87.80
2018-02-13T18:13:47.539Z,87.80
2018-02-13T18:16:15.083Z,87.60
2018-02-13T18:18:42.611Z,87.80
2018-02-13T18:21:10.905Z,87.70
2018-02-13T18:23:38.431Z,87.60
2018-02-13T18:26:06.036Z,87.40
2018-02-13T18:28:33.576Z,87.40
2018-02-13T18:31:01.096Z,87.20
2018-02-13T18:33:28.623Z,87.10
2018-02-13T18:35:56.139Z,87.20
2018-02-13T18:38:23.681Z,87.00
2018-02-13T18:40:51.193Z,87.70
2018-02-13T18:43:18.685Z,87.20
2018-02-13T18:45:46.205Z,87.20
2018-02-13T18:48:13.723Z,87.20
2018-02-13T18:50:41.227Z,87.40
2018-02-13T18:55:36.301Z,87.30
2018-02-13T18:58:03.807Z,87.60
2018-02-13T19:00:31.405Z,87.70
2018-02-13T19:02:58.911Z,87.60
2018-02-13T19:05:26.407Z,87.70
2018-02-13T19:07:53.922Z,87.90
2018-02-13T19:10:21.440Z,88.30
2018-02-13T19:12:48.967Z,88.10
2018-02-13T19:15:16.503Z,88.30
2018-02-13T19:17:44.019Z,88.40
2018-02-13T19:20:11.535Z,88.60
2018-02-13T19:22:39.068Z,88.70
2018-02-13T19:25:06.583Z,88.70
2018-02-13T19:27:34.135Z,88.90
2018-02-13T19:30:01.661Z,89.00
2018-02-13T19:32:29.175Z,89.00
2018-02-13T19:34:56.701Z,89.20
2018-02-13T19:37:24.227Z,89.30
2018-02-13T19:39:51.754Z,89.30
2018-02-13T19:42:19.283Z,89.40
2018-02-13T19:44:46.823Z,89.50
2018-02-13T19:47:14.343Z,89.50
2018-02-13T19:49:41.855Z,89.60
2018-02-13T19:52:09.407Z,89.80
2018-02-13T19:54:36.967Z,89.80
2018-02-13T19:57:04.484Z,89.60
2018-02-13T19:59:32.029Z,89.60
2018-02-13T20:01:59.568Z,89.80
2018-02-13T20:04:27.105Z,90.00
2018-02-13T20:06:55.426Z,89.80
2018-02-13T20:09:22.929Z,89.70
2018-02-13T20:11:50.439Z,89.80
2018-02-13T20:14:17.977Z,89.50
2018-02-13T20:16:46.300Z,89.60
2018-02-13T20:19:13.818Z,89.50
2018-02-13T20:21:41.349Z,89.60
2018-02-13T20:24:08.867Z,90.00
2018-02-13T20:26:36.370Z,89.50
2018-02-13T20:29:03.907Z,89.70
2018-02-13T20:31:31.444Z,89.70
2018-02-13T20:33:58.957Z,89.90
2018-02-13T20:36:26.479Z,89.80
2018-02-13T20:38:54.019Z,89.70
2018-02-13T20:41:21.540Z,89.70
2018-02-13T20:43:49.086Z,89.60
2018-02-13T20:46:16.591Z,89.60
2018-02-13T20:48:44.127Z,89.50
2018-02-13T20:51:11.660Z,89.60
2018-02-13T20:53:39.939Z,89.60
2018-02-13T20:56:07.447Z,89.40
2018-02-13T20:58:34.985Z,89.60
2018-02-13T21:01:02.495Z,89.40
2018-02-13T21:03:30.024Z,89.20
2018-02-13T21:05:57.557Z,89.40
2018-02-13T21:08:25.076Z,89.50
2018-02-13T21:10:52.607Z,89.50
2018-02-13T21:13:20.891Z,89.40
2018-02-13T21:15:48.399Z,89.30
2018-02-13T21:18:15.915Z,89.40
2018-02-13T21:20:43.433Z,89.40
2018-02-13T21:23:10.941Z,89.30
2018-02-13T21:25:38.484Z,89.20
2018-02-13T21:28:06.009Z,89.30
2018-02-13T21:30:33.533Z,89.00
2018-02-13T21:33:01.063Z,89.00
2018-02-13T21:35:28.586Z,88.70
2018-02-13T21:37:56.108Z,88.60
2018-02-13T21:40:23.624Z,88.70
2018-02-13T21:42:51.145Z,88.80
2018-02-13T21:45:19.452Z,88.80
2018-02-13T21:47:47.132Z,88.70
2018-02-13T21:50:14.649Z,88.80
2018-02-13T21:52:42.923Z,88.50
2018-02-13T21:55:11.221Z,88.30
2018-02-13T21:57:38.739Z,88.10
2018-02-13T22:00:06.249Z,88.20
2018-02-13T22:02:33.764Z,88.30
2018-02-13T22:05:02.043Z,88.70
2018-02-13T22:07:29.568Z,88.60
2018-02-13T22:09:57.090Z,88.40
2018-02-13T22:12:24.626Z,88.60
2018-02-13T22:14:52.133Z,88.80
2018-02-13T22:17:19.651Z,88.80
2018-02-13T22:19:47.168Z,88.90
2018-02-13T22:22:14.717Z,88.60
2018-02-13T22:24:42.247Z,88.80
2018-02-13T22:27:09.758Z,88.80
2018-02-13T22:29:37.275Z,88.80
2018-02-13T22:32:05.560Z,88.90
2018-02-13T22:34:33.081Z,88.90
2018-02-13T22:37:00.584Z,88.80
2018-02-13T22:39:28.117Z,88.70
2018-02-13T22:41:55.620Z,88.70
2018-02-13T22:44:23.134Z,88.70
2018-02-13T22:46:50.649Z,88.90
2018-02-13T22:49:18.178Z,88.90
2018-02-13T22:51:45.693Z,89.00
2018-02-13T22:54:13.229Z,89.00
2018-02-13T22:56:40.771Z,89.30
2018-02-13T22:59:08.279Z,89.50
2018-02-13T23:01:35.801Z,89.60
2018-02-13T23:04:03.333Z,89.70
2018-02-13T23:06:31.005Z,89.80
2018-02-13T23:08:58.532Z,90.00
2018-02-13T23:11:26.050Z,90.00
2018-02-13T23:13:53.566Z,90.10
2018-02-13T23:16:21.087Z,90.10
2018-02-13T23:18:48.588Z,90.20
2018-02-13T23:21:16.105Z,90.20
2018-02-13T23:23:43.779Z,90.30
2018-02-13T23:26:11.285Z,90.20
2018-02-13T23:28:38.795Z,90.30
2018-02-13T23:31:06.325Z,90.20
2018-02-13T23:33:33.885Z,90.30
2018-02-13T23:36:02.174Z,90.30
2018-02-13T23:38:29.732Z,90.30
2018-02-13T23:40:57.221Z,90.30
2018-02-13T23:43:24.728Z,90.30
2018-02-13T23:45:52.244Z,90.30
2018-02-13T23:48:19.765Z,90.20
2018-02-13T23:50:47.271Z,90.20
2018-02-13T23:53:14.785Z,90.20
2018-02-13T23:55:42.317Z,90.20
2018-02-13T23:58:09.829Z,90.30
